x

West Orca Bay - 8nm Nw Of Hinchinbrook Is , Ak (46060) Wave Buoy

6:50pm - Thu 25th Dec 2014 All times are AKST. -9 hours from GMT.

  • Sig Wave height 4.6ft
  • Swell Direction
  • Peak Period 10s
  • Average Period 5s
  • Wind
    27mph, 31mph gusts
  • Sea Temp 45°f
  • Air Temp 42°f
  • Sea Pressure 1009.3mb
  • West Orca Bay - 8nm Nw Of Hinchinbrook  Is , Ak
  • West Orca Bay - 8nm Nw Of Hinchinbrook  Is , Ak

More Historic Weather Station data

Upgrade to MSW Pro to gain access to the past 30 days of data for over 8000 Wavebouys and Weather Stations around the globe.

Join Pro

Comparision Forecast

View Surf forecast
   
Thu 12/25 6:50pm 4.5ft 10s 5s 27 31 mph 1009.3mb 45f 42f
5:50pm 5ft 5s 5s 20 25 mph 1009mb 45f 44f
4:50pm 5.5ft 5s 5s 22 29 mph 1008.3mb 45f 44f
3:50pm 5.5ft 6s 5s 22 27 mph 1007.5mb 45f 44f
2:50pm 6ft 5s 5s 27 31 mph 1005.9mb 45f 44f
1:50pm 4.5ft 5s 4s 29 36 mph 1005.1mb 45f 44f
12:50pm 4.5ft 5s 4s 20 25 mph 1004.7mb 45f 43f
11:50am 5ft 5s 4s 20 29 mph 1004.8mb 45f 41f
10:50am 5ft 5s 5s 29 34 mph 1004.7mb 45f 39f
9:50am 5.5ft 5s 5s 29 34 mph 1004.3mb 45f 39f
8:50am 5ft 11s 4s 34 40 mph 1004mb 45f 40f
7:50am 5ft 4s 4s 31 36 mph 1004mb 45f 40f
6:50am 4.5ft 4s 4s 31 38 mph 1004.5mb 45f 41f
5:50am 3ft 4s 4s 29 34 mph 1005mb 45f 41f
4:50am 3.5ft 7s 4s 22 27 mph 1005.8mb 45f 41f
3:50am 3.5ft 4s 4s 25 31 mph 1006.2mb 45f 41f
2:50am 2.5ft 8s 4s 25 29 mph 1006.7mb 45f 40f
1:50am 3ft 8s 4s 16 18 mph 1007.5mb 45f 40f
12:50am 2.5ft 7s 4s 18 20 mph 1006.9mb 45f 39f
Wed 12/24 11:50pm 2.5ft 6s 4s 18 29 mph 1007.8mb 45f 39f
10:50pm 2ft 8s 4s 16 20 mph 1008mb 45f 39f
9:50pm 2ft 4s 4s 16 20 mph 1007.4mb 45f 39f
8:50pm 2ft 3s 4s 13 18 mph 1007.1mb 45f 38f
7:50pm 2.5ft 3s 4s 18 22 mph 1006.2mb 45f 39f
6:50pm 2ft 3s 3s 18 20 mph 1006.2mb 45f 38f
5:50pm 2.5ft 3s 4s 18 22 mph 1005.7mb 45f 38f
4:50pm 2.5ft 4s 4s 20 22 mph 1005.3mb 45f 38f
3:50pm 3ft 4s 4s 20 25 mph 1005.3mb 45f 38f
2:50pm 2.5ft 4s 4s 22 27 mph 1005.3mb 45f 38f
1:50pm 2.5ft 3s 4s 20 25 mph 1005mb 45f 37f
12:50pm 2.5ft 3s 3s 22 25 mph 1005.1mb 45f 37f
11:50am 2.5ft 3s 4s 22 25 mph 1005.5mb 45f 36f
10:50am 2.5ft 3s 4s 22 25 mph 1005.6mb 45f 36f
9:50am 2.5ft 3s 3s 22 27 mph 1005.6mb 45f 36f
8:50am 2.5ft 3s 4s 20 25 mph 1005.7mb 45f 38f
7:50am 2ft 12s 4s 18 22 mph 1005.8mb 45f 37f
6:50am 2ft 13s 4s 18 20 mph 1005.4mb 45f 38f
5:50am 2ft 9s 4s 18 20 mph 1005.2mb 45f 38f
4:50am 2ft 12s 4s 18 20 mph 1005.4mb 45f 38f
3:50am 2ft 13s 4s 16 18 mph 1005.4mb 44f 38f
2:50am 2ft 13s 5s 16 18 mph 1005.5mb 44f 38f
1:50am 2ft 14s 6s 13 16 mph 1005.5mb 44f 39f
12:50am 1.6ft 13s 7s 9
mph
1005.3mb 44f 39f
Tue 12/23 11:50pm 1.6ft 14s 6s 2 4 mph 1005.2mb 44f 39f
10:50pm 1.3ft 13s 5s 4 7 mph 1004.9mb 44f 39f
9:50pm 1.3ft 10s 5s 7 9 mph 1004.6mb 44f 39f
8:50pm 1.3ft 10s 4s 7 9 mph 1004.5mb 44f 39f
7:50pm 1.6ft 11s 4s 9 13 mph 1004.2mb 44f 39f
6:50pm 1.6ft 11s 4s 9 11 mph 1004mb 44f 39f
5:50pm 2ft 11s 4s 11 13 mph 1003.8mb 44f 39f
4:50pm 2ft 10s 4s 11 16 mph 1003.5mb 44f 39f
3:50pm 2ft 11s 5s 11 13 mph 1003.2mb 44f 39f
2:50pm 2ft 9s 4s 11 16 mph 1003.2mb 44f 39f
1:50pm 2ft 9s 5s 11 16 mph 1003.4mb 45f 38f
12:50pm 2ft 10s 4s 11 16 mph 1003.6mb 45f 38f
11:50am 2ft 9s 5s 13 18 mph 1004mb 45f 39f
10:50am  -   -   -  13 16 mph 1004.8mb 45f 40f
9:50am 2ft 10s 6s 11 13 mph 1005.5mb 45f 40f
8:50am 2.5ft 9s 7s 9
mph
1006mb 45f 40f
7:50am 2ft 11s 7s 4 7 mph 1006.7mb 44f 40f
6:50am 2ft 10s 7s  -  2 mph 1007mb 44f 40f
5:50am 2ft 11s 6s 2 4 mph 1007.5mb 45f 40f
4:50am 2.5ft 9s 5s 7 9 mph 1008mb 45f 41f
3:50am 2.5ft 3s 4s 11 13 mph 1008.8mb 46f 40f
2:50am 2.5ft 4s 4s 16 18 mph 1009.3mb 46f 41f
1:50am 2.5ft 4s 4s 18 22 mph 1009.7mb 46f 40f
12:50am 2.5ft 4s 4s 22 29 mph 1009.8mb 46f 39f
Mon 12/22 11:50pm 3ft 10s 4s 20 22 mph 1010.3mb 46f 39f
10:50pm 3.5ft 8s 4s 22 25 mph 1010.2mb 46f 39f
9:50pm 3.5ft 10s 4s 22 27 mph 1010.2mb 46f 41f
8:50pm 3ft 10s 4s 22 25 mph 1010.3mb 46f 40f
7:50pm 3ft 11s 4s 22 27 mph 1010.2mb 46f 40f
6:50pm 3.5ft 4s 4s 22 25 mph 1009.9mb 46f 41f
5:50pm 3ft 4s 4s 13 20 mph 1009.6mb 46f 42f
4:50pm 3ft 4s 4s 11 16 mph 1008.8mb 46f 43f
3:50pm 3.5ft 11s 4s 18 22 mph 1007.8mb 46f 42f
2:50pm 3.5ft 4s 4s 20 25 mph 1007.7mb 46f 41f
1:50pm 3.5ft 4s 4s 22 27 mph 1007.2mb 46f 42f
12:50pm 3.5ft 9s 4s 25 29 mph 1007.1mb 46f 42f
11:50am 3.5ft 4s 4s 22 27 mph 1007mb 46f 42f
10:50am 3ft 9s 4s 22 27 mph 1006.6mb 46f 41f
9:50am 3.5ft 9s 4s 22 29 mph 1006.2mb 46f 42f
8:50am 3.5ft 10s 4s 20 25 mph 1005.5mb 46f 42f
7:50am 3ft 4s 4s 22 27 mph 1004.8mb 46f 42f
6:50am 3ft 10s 4s 22 27 mph 1004.3mb 46f 41f
5:50am 3.5ft 11s 4s 25 27 mph 1003.7mb 46f 41f